createdAt,value
2024-04-10T00:02:18.541Z,1.33
2024-04-10T00:04:48.424Z,1.47
2024-04-10T00:07:15.244Z,1.33
2024-04-10T00:09:42.181Z,1.40
2024-04-10T00:12:08.754Z,1.20
2024-04-10T00:14:39.158Z,1.27
2024-04-10T00:17:05.833Z,1.47
2024-04-10T00:19:32.312Z,1.40
2024-04-10T00:21:58.770Z,1.20
2024-04-10T00:24:25.216Z,1.40
2024-04-10T00:26:51.844Z,1.73
2024-04-10T00:29:18.664Z,1.30
2024-04-10T00:31:46.574Z,1.30
2024-04-10T00:34:13.301Z,1.47
2024-04-10T00:36:40.147Z,1.30
2024-04-10T00:39:06.763Z,1.50
2024-04-10T00:41:33.338Z,1.13
2024-04-10T00:43:59.858Z,1.27
2024-04-10T00:46:26.510Z,1.30
2024-04-10T00:48:53.207Z,1.40
2024-04-10T00:51:20.802Z,1.37
2024-04-10T00:53:47.557Z,1.30
2024-04-10T00:56:15.228Z,1.30
2024-04-10T00:58:42.337Z,1.23
2024-04-10T01:01:10.183Z,1.30
2024-04-10T01:03:37.966Z,1.40
2024-04-10T01:06:05.428Z,1.53
2024-04-10T01:08:32.691Z,1.20
2024-04-10T01:11:00.715Z,1.40
2024-04-10T01:13:27.570Z,1.50
2024-04-10T01:15:54.063Z,1.27
2024-04-10T01:18:20.672Z,1.40
2024-04-10T01:20:47.612Z,1.40
2024-04-10T01:23:14.136Z,1.53
2024-04-10T01:25:40.554Z,1.33
2024-04-10T01:28:07.001Z,1.63
2024-04-10T01:30:33.419Z,1.40
2024-04-10T01:33:00.034Z,1.40
2024-04-10T01:35:26.749Z,1.30
2024-04-10T01:37:54.112Z,1.37
2024-04-10T01:40:23.614Z,1.50
2024-04-10T01:42:50.183Z,1.20
2024-04-10T01:45:17.032Z,1.30
2024-04-10T01:47:43.580Z,1.10
2024-04-10T01:50:10.172Z,1.07
2024-04-10T01:52:36.794Z,1.37
2024-04-10T01:55:03.729Z,1.30
2024-04-10T01:57:30.329Z,1.30
2024-04-10T01:59:56.923Z,1.50
2024-04-10T02:02:23.452Z,1.60
2024-04-10T02:04:49.918Z,1.07
2024-04-10T02:07:16.386Z,1.23
2024-04-10T02:09:45.906Z,1.00
2024-04-10T02:12:12.623Z,1.37
2024-04-10T02:14:39.131Z,1.53
2024-04-10T02:17:05.923Z,1.10
2024-04-10T02:19:32.406Z,1.23
2024-04-10T02:21:58.803Z,1.13
2024-04-10T02:24:26.257Z,1.30
2024-04-10T02:26:52.757Z,1.03
2024-04-10T02:29:19.621Z,1.40
2024-04-10T02:31:46.021Z,1.53
2024-04-10T02:34:12.960Z,1.10
2024-04-10T02:36:39.583Z,1.27
2024-04-10T02:39:06.026Z,1.10
2024-04-10T02:41:32.573Z,1.43
2024-04-10T02:43:59.090Z,2.47
2024-04-10T02:46:25.582Z,1.10
2024-04-10T02:48:52.030Z,1.50
2024-04-10T02:51:18.600Z,1.17
2024-04-10T02:53:45.060Z,1.17
2024-04-10T02:56:11.492Z,0.73
2024-04-10T02:58:37.915Z,1.10
2024-04-10T03:01:04.568Z,1.30
2024-04-10T03:03:31.150Z,1.53
2024-04-10T03:06:01.671Z,1.37
2024-04-10T03:08:28.218Z,0.97
2024-04-10T03:10:54.768Z,1.23
2024-04-10T03:13:21.638Z,1.30
2024-04-10T03:15:48.053Z,1.17
2024-04-10T03:18:14.836Z,1.30
2024-04-10T03:20:41.719Z,1.20
2024-04-10T03:23:08.220Z,1.50
2024-04-10T03:25:34.816Z,1.37
2024-04-10T03:28:01.562Z,1.20
2024-04-10T03:30:28.086Z,1.50
2024-04-10T03:32:54.863Z,1.17
2024-04-10T03:35:21.539Z,1.13
2024-04-10T03:37:48.035Z,1.20
2024-04-10T03:40:14.608Z,1.20
2024-04-10T03:42:41.016Z,1.40
2024-04-10T03:45:07.629Z,1.10
2024-04-10T03:47:34.256Z,1.40
2024-04-10T03:50:00.850Z,1.60
2024-04-10T03:52:27.702Z,1.33
2024-04-10T03:54:54.336Z,1.60
2024-04-10T03:57:20.738Z,1.30
2024-04-10T03:59:47.309Z,1.53
2024-04-10T04:02:14.226Z,1.60
2024-04-10T04:04:40.821Z,1.53
2024-04-10T04:07:07.258Z,1.23
2024-04-10T04:09:33.791Z,1.40
2024-04-10T04:12:00.847Z,1.13
2024-04-10T04:14:28.834Z,1.40
2024-04-10T04:16:55.335Z,1.30
2024-04-10T04:19:21.768Z,1.37
2024-04-10T04:21:48.171Z,1.60
2024-04-10T04:24:15.144Z,1.60
2024-04-10T04:26:42.004Z,1.43
2024-04-10T04:29:08.506Z,1.60
2024-04-10T04:31:34.959Z,1.70
2024-04-10T04:34:07.586Z,1.50
2024-04-10T04:36:34.139Z,1.30
2024-04-10T04:39:00.839Z,1.50
2024-04-10T04:41:27.566Z,1.60
2024-04-10T04:43:54.105Z,1.43
2024-04-10T04:46:21.216Z,1.60
2024-04-10T04:48:47.806Z,1.50
2024-04-10T04:51:14.270Z,1.63
2024-04-10T04:53:40.783Z,1.40
2024-04-10T04:56:08.218Z,1.60
2024-04-10T04:58:34.780Z,1.50
2024-04-10T05:01:01.303Z,1.50
2024-04-10T05:03:46.391Z,1.50
2024-04-10T05:06:13.425Z,1.70
2024-04-10T05:08:40.352Z,1.67
2024-04-10T05:11:08.277Z,1.70
2024-04-10T05:13:36.215Z,1.73
2024-04-10T05:16:02.712Z,1.40
2024-04-10T05:18:29.155Z,1.90
2024-04-10T05:20:55.588Z,1.67
2024-04-10T05:23:22.115Z,1.60
2024-04-10T05:25:50.478Z,1.63
2024-04-10T05:28:16.949Z,1.90
2024-04-10T05:30:43.345Z,1.97
2024-04-10T05:33:10.010Z,1.80
2024-04-10T05:35:36.665Z,1.73
2024-04-10T05:38:03.272Z,2.07
2024-04-10T05:40:29.836Z,1.80
2024-04-10T05:42:56.226Z,2.37
2024-04-10T05:45:22.705Z,1.70
2024-04-10T05:47:50.634Z,1.73
2024-04-10T05:50:17.358Z,2.03
2024-04-10T05:52:44.166Z,2.13
2024-04-10T05:55:11.054Z,2.10
2024-04-10T05:57:37.638Z,2.40
2024-04-10T06:00:08.930Z,1.93
2024-04-10T06:02:40.332Z,2.33
2024-04-10T06:05:07.815Z,2.40
2024-04-10T06:07:35.120Z,2.57
2024-04-10T06:10:01.963Z,3.10
2024-04-10T06:12:28.758Z,2.20
2024-04-10T06:14:58.793Z,2.67
2024-04-10T06:17:28.041Z,3.03
2024-04-10T06:19:55.579Z,2.70
2024-04-10T06:22:23.839Z,2.33
2024-04-10T06:24:50.543Z,2.50
2024-04-10T06:28:47.829Z,2.53
2024-04-10T06:31:15.118Z,2.93
2024-04-10T06:33:41.644Z,3.20
2024-04-10T06:36:08.625Z,3.00
2024-04-10T06:38:35.567Z,2.80
2024-04-10T06:41:03.242Z,2.60
2024-04-10T06:43:29.782Z,3.10
2024-04-10T06:45:56.205Z,2.80
2024-04-10T06:48:22.771Z,3.23
2024-04-10T06:50:49.415Z,2.83
2024-04-10T06:53:17.256Z,2.97
2024-04-10T06:55:51.961Z,2.60
2024-04-10T06:58:18.404Z,3.23
2024-04-10T07:00:54.634Z,2.90
2024-04-10T07:03:21.337Z,2.70
2024-04-10T07:05:50.199Z,3.00
2024-04-10T07:08:16.968Z,3.03
2024-04-10T07:10:53.200Z,2.83
2024-04-10T07:13:19.696Z,3.20
2024-04-10T07:15:46.160Z,3.30
2024-04-10T07:18:12.691Z,3.40
2024-04-10T07:20:39.202Z,2.37
2024-04-10T07:23:07.550Z,2.97
2024-04-10T07:25:34.072Z,2.67
2024-04-10T07:28:00.513Z,3.17
2024-04-10T07:30:28.611Z,2.43
2024-04-10T07:32:56.872Z,2.70
2024-04-10T07:35:23.585Z,2.90
2024-04-10T07:37:50.178Z,3.13
2024-04-10T07:40:17.079Z,2.93
2024-04-10T07:42:43.538Z,4.00
2024-04-10T07:45:09.935Z,3.20
2024-04-10T07:47:36.443Z,3.30
2024-04-10T07:50:03.133Z,3.50
2024-04-10T07:52:29.621Z,3.13
2024-04-10T07:54:56.063Z,3.20
2024-04-10T07:57:22.487Z,3.17
2024-04-10T07:59:48.919Z,3.17
2024-04-10T08:02:15.370Z,3.03
2024-04-10T08:04:41.844Z,3.53
2024-04-10T08:07:08.469Z,3.03
2024-04-10T08:09:37.297Z,3.37
2024-04-10T08:12:05.512Z,3.27
2024-04-10T08:14:32.390Z,2.87
2024-04-10T08:16:59.028Z,3.10
2024-04-10T08:19:25.584Z,3.80
2024-04-10T08:21:52.558Z,3.40
2024-04-10T08:24:18.982Z,3.13
2024-04-10T08:26:45.458Z,3.27
2024-04-10T08:29:11.949Z,3.50
2024-04-10T08:31:39.070Z,3.40
2024-04-10T08:34:05.772Z,2.87
2024-04-10T08:36:33.629Z,3.80
2024-04-10T08:39:00.133Z,3.17
2024-04-10T08:41:26.946Z,3.00
2024-04-10T08:43:53.783Z,2.93
2024-04-10T08:46:22.072Z,2.60
2024-04-10T08:48:52.372Z,3.17
2024-04-10T08:51:18.967Z,2.77
2024-04-10T08:53:46.593Z,2.30
2024-04-10T08:56:14.556Z,2.20
2024-04-10T08:58:41.251Z,2.13
2024-04-10T09:01:08.029Z,1.90
2024-04-10T09:03:35.423Z,2.33
2024-04-10T09:06:08.687Z,2.37
2024-04-10T09:08:35.789Z,2.30
2024-04-10T09:11:02.273Z,2.40
2024-04-10T09:13:28.961Z,2.00
2024-04-10T09:15:58.014Z,2.43
2024-04-10T09:18:24.471Z,2.03
2024-04-10T09:20:50.868Z,2.30
2024-04-10T09:23:18.218Z,2.10
2024-04-10T09:25:45.973Z,1.97
2024-04-10T09:28:13.425Z,2.30
2024-04-10T09:30:39.854Z,2.07
2024-04-10T09:33:06.670Z,2.17
2024-04-10T09:35:35.053Z,2.00
2024-04-10T09:38:03.397Z,1.70
2024-04-10T09:40:30.507Z,1.70
2024-04-10T09:43:06.494Z,2.00
2024-04-10T09:45:36.810Z,1.67
2024-04-10T09:48:05.129Z,2.07
2024-04-10T09:50:34.234Z,1.70
2024-04-10T09:53:01.853Z,1.40
2024-04-10T09:55:29.358Z,1.63
2024-04-10T09:57:56.476Z,2.03
2024-04-10T10:00:22.892Z,1.73
2024-04-10T10:02:49.480Z,1.60
2024-04-10T10:05:22.605Z,1.90
2024-04-10T10:07:50.844Z,1.60
2024-04-10T10:10:22.239Z,1.70
2024-04-10T10:12:49.825Z,1.37
2024-04-10T10:15:21.636Z,1.60
2024-04-10T10:18:00.975Z,1.27
2024-04-10T10:20:32.228Z,1.67
2024-04-10T10:22:59.509Z,1.80
2024-04-10T10:25:26.906Z,1.40
2024-04-10T10:28:03.225Z,1.50
2024-04-10T10:30:29.907Z,1.60
2024-04-10T10:33:06.322Z,2.07
2024-04-10T10:35:33.195Z,1.50
2024-04-10T10:38:03.470Z,1.60
2024-04-10T10:40:30.090Z,1.70
2024-04-10T10:43:00.182Z,1.60
2024-04-10T10:45:26.578Z,1.10
2024-04-10T10:47:53.143Z,1.40
2024-04-10T10:50:19.734Z,1.53
2024-04-10T10:52:46.792Z,1.50
2024-04-10T10:55:16.637Z,1.63
2024-04-10T10:57:43.356Z,0.93
2024-04-10T11:00:16.963Z,1.30
2024-04-10T11:02:44.256Z,1.77
2024-04-10T11:05:14.636Z,1.30
2024-04-10T11:07:42.395Z,0.80
2024-04-10T11:10:10.064Z,1.00
2024-04-10T11:12:36.617Z,0.80
2024-04-10T11:15:07.000Z,0.90
2024-04-10T11:17:33.594Z,0.80
2024-04-10T11:20:00.167Z,0.73
2024-04-10T11:22:26.956Z,0.77
2024-04-10T11:24:55.107Z,1.10
2024-04-10T11:27:21.750Z,0.80
2024-04-10T11:29:49.490Z,1.03
2024-04-10T11:32:16.116Z,0.70
2024-04-10T11:34:42.745Z,1.00
2024-04-10T11:37:09.191Z,0.83
2024-04-10T11:39:35.976Z,1.23
2024-04-10T11:42:02.393Z,1.00
2024-04-10T11:44:28.978Z,0.70
2024-04-10T11:46:55.424Z,1.23
2024-04-10T11:49:25.780Z,0.80
2024-04-10T11:51:52.234Z,1.17
2024-04-10T11:54:19.757Z,0.90
2024-04-10T11:56:46.511Z,0.77
2024-04-10T11:59:12.958Z,1.00
2024-04-10T12:01:39.529Z,0.77
2024-04-10T12:04:06.087Z,1.00
2024-04-10T12:06:32.532Z,0.90
2024-04-10T12:08:59.328Z,0.80
2024-04-10T12:11:26.596Z,0.80
2024-04-10T12:13:53.129Z,0.90
2024-04-10T12:16:19.535Z,0.87
2024-04-10T12:18:45.988Z,0.80
2024-04-10T12:21:13.162Z,1.00
2024-04-10T12:23:39.694Z,1.00
2024-04-10T12:26:08.378Z,1.00
2024-04-10T12:28:35.304Z,1.00
2024-04-10T12:31:02.569Z,1.07
2024-04-10T12:33:29.232Z,0.90
2024-04-10T12:36:17.348Z,0.80
2024-04-10T12:38:45.986Z,0.90
2024-04-10T12:41:12.588Z,1.03
2024-04-10T12:43:43.304Z,1.00
2024-04-10T12:46:10.119Z,0.80
2024-04-10T12:48:36.676Z,1.10
2024-04-10T12:51:04.421Z,0.83
2024-04-10T12:53:31.007Z,0.87
2024-04-10T12:55:57.444Z,0.90
2024-04-10T12:58:24.078Z,0.70
2024-04-10T13:00:53.975Z,0.97
2024-04-10T13:03:24.340Z,0.87
2024-04-10T13:05:59.822Z,0.83
2024-04-10T13:08:26.798Z,1.33
2024-04-10T13:11:04.399Z,1.13
2024-04-10T13:13:35.669Z,1.20
2024-04-10T13:16:05.164Z,1.00
2024-04-10T13:18:31.984Z,1.40
2024-04-10T13:20:59.045Z,1.43
2024-04-10T13:23:26.257Z,0.93
2024-04-10T13:26:03.161Z,1.10
2024-04-10T13:28:31.844Z,0.80
2024-04-10T13:31:06.867Z,1.10
2024-04-10T13:33:33.966Z,1.13
2024-04-10T13:36:20.085Z,1.10
2024-04-10T13:38:48.635Z,0.93
2024-04-10T13:41:16.205Z,0.90
2024-04-10T13:43:43.488Z,1.00
2024-04-10T13:46:10.822Z,1.00
2024-04-10T13:48:39.537Z,0.97
2024-04-10T13:51:06.514Z,1.20
2024-04-10T13:53:33.508Z,0.97
2024-04-10T13:56:06.728Z,1.00
2024-04-10T13:58:33.790Z,0.97
2024-04-10T14:01:00.650Z,1.17
2024-04-10T14:03:27.247Z,1.30
2024-04-10T14:06:00.798Z,1.30
2024-04-10T14:08:27.892Z,0.90
2024-04-10T14:10:54.577Z,1.10
2024-04-10T14:13:21.033Z,1.10
2024-04-10T14:15:53.866Z,1.00
2024-04-10T14:18:20.560Z,1.20
2024-04-10T14:20:47.687Z,1.20
2024-04-10T14:23:15.488Z,1.37
2024-04-10T14:25:41.912Z,1.30
2024-04-10T14:28:10.188Z,1.17
2024-04-10T14:30:37.118Z,1.00
2024-04-10T14:33:03.773Z,1.00
2024-04-10T14:35:30.366Z,1.07
2024-04-10T14:37:57.083Z,1.17
2024-04-10T14:40:23.664Z,0.80
2024-04-10T14:42:50.542Z,0.90
2024-04-10T14:45:18.302Z,1.00
2024-04-10T14:47:44.979Z,1.00
2024-04-10T14:50:11.467Z,1.13
2024-04-10T14:52:38.531Z,1.00
2024-04-10T14:55:06.754Z,1.03
2024-04-10T14:57:36.053Z,0.90
2024-04-10T15:00:03.771Z,1.10
2024-04-10T15:02:30.635Z,1.20
2024-04-10T15:04:57.172Z,1.30
2024-04-10T15:07:24.352Z,1.10
2024-04-10T15:09:51.743Z,0.93
2024-04-10T15:12:19.368Z,1.27
2024-04-10T15:14:45.877Z,0.97
2024-04-10T15:17:12.336Z,1.00
2024-04-10T15:19:38.899Z,1.17
2024-04-10T15:22:05.353Z,0.80
2024-04-10T15:24:37.417Z,0.93
2024-04-10T15:27:04.188Z,1.30
2024-04-10T15:29:30.661Z,1.37
2024-04-10T15:31:57.379Z,1.50
2024-04-10T15:34:23.893Z,1.03
2024-04-10T15:36:51.000Z,1.10
2024-04-10T15:39:17.411Z,1.20
2024-04-10T15:41:44.550Z,1.10
2024-04-10T15:44:11.232Z,0.93
2024-04-10T15:46:37.689Z,1.30
2024-04-10T15:49:04.311Z,1.13
2024-04-10T15:51:30.814Z,0.90
2024-04-10T15:53:59.799Z,0.80
2024-04-10T15:56:27.211Z,1.30
2024-04-10T15:58:53.696Z,1.00
2024-04-10T16:01:20.125Z,0.90
2024-04-10T16:03:47.339Z,1.10
2024-04-10T16:06:14.987Z,0.90
2024-04-10T16:08:42.052Z,0.83
2024-04-10T16:11:19.439Z,1.00
2024-04-10T16:13:46.502Z,0.80
2024-04-10T16:16:13.293Z,0.80
2024-04-10T16:18:39.924Z,0.60
2024-04-10T16:21:07.672Z,0.80
2024-04-10T16:23:34.465Z,0.60
2024-04-10T16:26:07.885Z,0.70
2024-04-10T16:28:34.347Z,1.37
2024-04-10T16:31:01.204Z,0.90
2024-04-10T16:33:27.790Z,1.00
2024-04-10T16:35:54.528Z,1.03
2024-04-10T16:38:21.106Z,0.83
2024-04-10T16:40:47.572Z,0.70
2024-04-10T16:43:14.027Z,4.63
2024-04-10T16:45:40.483Z,1.50
2024-04-10T16:48:07.844Z,1.00
2024-04-10T16:50:34.339Z,1.30
2024-04-10T16:53:00.766Z,1.37
2024-04-10T16:55:31.567Z,1.10
2024-04-10T16:57:58.005Z,1.10
2024-04-10T17:00:24.437Z,0.90
2024-04-10T17:02:50.986Z,1.13
2024-04-10T17:05:17.566Z,1.00
2024-04-10T17:07:44.032Z,1.27
2024-04-10T17:10:10.590Z,1.63
2024-04-10T17:12:37.141Z,1.10
2024-04-10T17:15:03.918Z,1.60
2024-04-10T17:17:50.405Z,1.30
2024-04-10T17:20:35.650Z,1.00
2024-04-10T17:23:02.090Z,1.00
2024-04-10T17:25:28.485Z,1.13
2024-04-10T17:27:54.907Z,0.60
2024-04-10T17:30:21.390Z,1.00
2024-04-10T17:32:47.956Z,0.93
2024-04-10T17:35:14.435Z,1.10
2024-04-10T17:37:40.866Z,1.00
2024-04-10T17:40:07.830Z,1.13
2024-04-10T17:42:34.269Z,1.10
2024-04-10T17:45:03.214Z,1.10
2024-04-10T17:47:29.804Z,1.30
2024-04-10T17:49:57.936Z,1.00
2024-04-10T17:52:24.345Z,1.03
2024-04-10T17:54:50.743Z,1.00
2024-04-10T17:57:17.166Z,1.20
2024-04-10T17:59:44.025Z,1.20
2024-04-10T18:02:10.461Z,1.30
2024-04-10T18:04:40.802Z,1.10
2024-04-10T18:07:07.240Z,1.10
2024-04-10T18:09:33.729Z,1.50
2024-04-10T18:12:00.173Z,2.10
2024-04-10T18:14:26.681Z,2.10
2024-04-10T18:16:53.096Z,2.30
2024-04-10T18:19:19.701Z,1.80
2024-04-10T18:21:48.003Z,1.80
2024-04-10T18:24:14.506Z,1.53
2024-04-10T18:26:41.077Z,1.50
2024-04-10T18:29:10.883Z,1.37
2024-04-10T18:31:37.271Z,1.53
2024-04-10T18:34:03.822Z,1.53
2024-04-10T18:36:30.455Z,1.30
2024-04-10T18:38:57.192Z,1.40
2024-04-10T18:41:24.115Z,1.40
2024-04-10T18:43:50.548Z,1.83
2024-04-10T18:46:17.461Z,1.80
2024-04-10T18:48:44.169Z,1.40
2024-04-10T18:51:20.306Z,1.37
2024-04-10T18:53:47.868Z,1.63
2024-04-10T18:56:14.421Z,1.30
2024-04-10T18:58:41.262Z,1.40
2024-04-10T19:01:08.033Z,1.73
2024-04-10T19:03:35.379Z,1.50
2024-04-10T19:06:12.682Z,1.40
2024-04-10T19:08:39.636Z,1.73
2024-04-10T19:11:07.400Z,1.77
2024-04-10T19:13:34.868Z,1.80
2024-04-10T19:16:01.702Z,1.90
2024-04-10T19:18:30.902Z,2.07
2024-04-10T19:20:57.639Z,1.87
2024-04-10T19:23:24.210Z,2.30
2024-04-10T19:25:51.658Z,1.70
2024-04-10T19:28:22.039Z,2.40
2024-04-10T19:30:49.166Z,2.00
2024-04-10T19:33:15.754Z,2.57
2024-04-10T19:35:42.698Z,2.10
2024-04-10T19:38:09.111Z,2.00
2024-04-10T19:40:35.547Z,2.60
2024-04-10T19:43:01.951Z,2.43
2024-04-10T19:45:28.362Z,2.60
2024-04-10T19:47:55.025Z,2.70
2024-04-10T19:50:21.986Z,2.80
2024-04-10T19:52:48.396Z,3.20
2024-04-10T19:55:14.825Z,2.80
2024-04-10T19:57:41.268Z,2.83
2024-04-10T20:00:08.711Z,2.80
2024-04-10T20:02:35.842Z,2.60
2024-04-10T20:05:06.969Z,2.47
2024-04-10T20:07:35.907Z,2.63
2024-04-10T20:10:03.669Z,2.93
2024-04-10T20:12:30.160Z,2.60
2024-04-10T20:14:57.755Z,2.50
2024-04-10T20:17:24.476Z,2.70
2024-04-10T20:19:51.158Z,3.27
2024-04-10T20:22:17.645Z,2.90
2024-04-10T20:24:44.109Z,2.67
2024-04-10T20:27:10.661Z,2.60
2024-04-10T20:29:37.153Z,2.80
2024-04-10T20:32:03.677Z,2.97
2024-04-10T20:34:30.156Z,2.87
2024-04-10T20:36:56.759Z,2.97
2024-04-10T20:39:23.300Z,2.30
2024-04-10T20:41:49.824Z,2.37
2024-04-10T20:44:16.315Z,2.53
2024-04-10T20:46:42.731Z,2.53
2024-04-10T20:49:09.524Z,2.90
2024-04-10T20:51:36.049Z,2.63
2024-04-10T20:54:02.688Z,3.70
2024-04-10T20:56:29.719Z,3.60
2024-04-10T20:58:56.160Z,3.97
2024-04-10T21:01:22.781Z,3.23
2024-04-10T21:03:51.362Z,3.47
2024-04-10T21:06:18.367Z,3.60
2024-04-10T21:09:06.358Z,2.70
2024-04-10T21:11:53.443Z,2.67
2024-04-10T21:14:38.798Z,2.60
2024-04-10T21:17:24.194Z,2.67
2024-04-10T21:20:09.495Z,2.80
2024-04-10T21:22:54.778Z,2.90
2024-04-10T21:25:47.289Z,2.57
2024-04-10T21:28:32.468Z,2.93
2024-04-10T21:31:20.797Z,2.50
2024-04-10T21:34:07.263Z,2.93
2024-04-10T21:36:52.496Z,2.37
2024-04-10T21:39:37.788Z,2.40
2024-04-10T21:42:23.225Z,2.97
2024-04-10T21:45:08.524Z,2.67
2024-04-10T21:47:54.014Z,2.90
2024-04-10T21:50:39.251Z,2.37
2024-04-10T21:53:24.658Z,3.07
2024-04-10T21:56:09.944Z,2.83
2024-04-10T21:58:55.730Z,3.00
2024-04-10T22:01:53.598Z,2.93
2024-04-10T22:04:46.926Z,2.90
2024-04-10T22:07:32.436Z,2.73
2024-04-10T22:09:58.916Z,3.07
2024-04-10T22:12:25.444Z,2.83
2024-04-10T22:14:53.661Z,2.97
2024-04-10T22:17:39.087Z,2.87
2024-04-10T22:20:25.328Z,2.70
2024-04-10T22:23:10.598Z,3.03
2024-04-10T22:25:37.058Z,2.53
2024-04-10T22:28:03.499Z,2.87
2024-04-10T22:30:29.903Z,3.13
2024-04-10T22:32:56.550Z,2.70
2024-04-10T22:35:23.121Z,3.10
2024-04-10T22:37:49.596Z,3.00
2024-04-10T22:40:18.281Z,3.00
2024-04-10T22:42:44.692Z,3.30
2024-04-10T22:45:11.439Z,3.47
2024-04-10T22:47:37.908Z,3.67
2024-04-10T22:50:05.032Z,3.10
2024-04-10T22:52:31.881Z,3.40
2024-04-10T22:54:58.328Z,2.93
2024-04-10T22:57:24.733Z,2.90
2024-04-10T22:59:51.203Z,3.07
2024-04-10T23:02:21.383Z,2.97
2024-04-10T23:04:47.993Z,2.90
2024-04-10T23:09:47.019Z,2.73
2024-04-10T23:12:13.560Z,2.70
2024-04-10T23:14:40.081Z,3.03
2024-04-10T23:17:06.631Z,2.60
2024-04-10T23:19:33.225Z,3.13
2024-04-10T23:21:59.810Z,2.83
2024-04-10T23:24:26.234Z,2.53
2024-04-10T23:26:52.803Z,3.10
2024-04-10T23:29:19.270Z,2.93
2024-04-10T23:31:45.765Z,3.00
2024-04-10T23:34:12.430Z,3.00
2024-04-10T23:36:39.245Z,2.83
2024-04-10T23:39:05.812Z,3.10
2024-04-10T23:41:32.470Z,3.10
2024-04-10T23:43:58.912Z,3.00
2024-04-10T23:46:25.331Z,3.30
2024-04-10T23:48:51.861Z,2.90
2024-04-10T23:51:18.305Z,3.13
2024-04-10T23:53:44.764Z,2.93
2024-04-10T23:56:11.264Z,2.90
2024-04-10T23:58:40.545Z,2.93
